sensor_id;sensor_type;location;lat;lon;timestamp;P1;durP1;ratioP1;P2;durP2;ratioP2
32106;SDS011;18622;51.998;10.440;2023-07-16T03:34:46;4.73;;;1.70;;
32106;SDS011;18622;51.998;10.440;2023-07-16T03:37:14;4.33;;;1.60;;
32106;SDS011;18622;51.998;10.440;2023-07-16T03:39:42;3.43;;;1.50;;
32106;SDS011;18622;51.998;10.440;2023-07-16T03:42:10;2.53;;;1.60;;
32106;SDS011;18622;51.998;10.440;2023-07-16T03:44:37;3.60;;;1.93;;
32106;SDS011;18622;51.998;10.440;2023-07-16T03:47:05;5.17;;;2.00;;
32106;SDS011;18622;51.998;10.440;2023-07-16T03:49:33;5.00;;;1.80;;
32106;SDS011;18622;51.998;10.440;2023-07-16T03:52:01;5.43;;;1.50;;
32106;SDS011;18622;51.998;10.440;2023-07-16T03:54:29;2.53;;;1.47;;
32106;SDS011;18622;51.998;10.440;2023-07-16T03:56:56;3.50;;;1.30;;
32106;SDS011;18622;51.998;10.440;2023-07-16T03:59:24;2.10;;;1.20;;
32106;SDS011;18622;51.998;10.440;2023-07-16T04:01:52;3.53;;;1.60;;
32106;SDS011;18622;51.998;10.440;2023-07-16T04:04:20;4.30;;;1.33;;
32106;SDS011;18622;51.998;10.440;2023-07-16T04:06:47;2.13;;;1.33;;
32106;SDS011;18622;51.998;10.440;2023-07-16T04:09:15;3.33;;;1.20;;
32106;SDS011;18622;51.998;10.440;2023-07-16T04:11:43;1.13;;;0.97;;
32106;SDS011;18622;51.998;10.440;2023-07-16T04:14:11;3.07;;;1.47;;
32106;SDS011;18622;51.998;10.440;2023-07-16T04:16:39;6.53;;;1.20;;
32106;SDS011;18622;51.998;10.440;2023-07-16T04:19:08;1.67;;;1.30;;
32106;SDS011;18622;51.998;10.440;2023-07-16T04:21:36;1.57;;;1.00;;
32106;SDS011;18622;51.998;10.440;2023-07-16T04:24:05;3.50;;;1.30;;
32106;SDS011;18622;51.998;10.440;2023-07-16T04:26:33;5.30;;;1.90;;
32106;SDS011;18622;51.998;10.440;2023-07-16T04:29:01;3.63;;;1.70;;
32106;SDS011;18622;51.998;10.440;2023-07-16T04:31:28;6.53;;;1.87;;
32106;SDS011;18622;51.998;10.440;2023-07-16T04:33:56;6.47;;;2.00;;
32106;SDS011;18622;51.998;10.440;2023-07-16T04:36:24;5.57;;;1.87;;
32106;SDS011;18622;51.998;10.440;2023-07-16T04:38:52;2.57;;;1.20;;
32106;SDS011;18622;51.998;10.440;2023-07-16T04:41:20;5.80;;;1.80;;
32106;SDS011;18622;51.998;10.440;2023-07-16T04:43:48;4.30;;;2.20;;
32106;SDS011;18622;51.998;10.440;2023-07-16T04:46:16;3.80;;;1.97;;
32106;SDS011;18622;51.998;10.440;2023-07-16T04:48:44;7.03;;;2.23;;
32106;SDS011;18622;51.998;10.440;2023-07-16T04:51:11;6.50;;;2.07;;
32106;SDS011;18622;51.998;10.440;2023-07-16T04:53:39;4.83;;;2.00;;
32106;SDS011;18622;51.998;10.440;2023-07-16T04:56:11;3.17;;;1.97;;
32106;SDS011;18622;51.998;10.440;2023-07-16T04:58:39;6.53;;;1.70;;
32106;SDS011;18622;51.998;10.440;2023-07-16T05:01:07;3.57;;;2.00;;
32106;SDS011;18622;51.998;10.440;2023-07-16T05:03:36;5.43;;;1.67;;
32106;SDS011;18622;51.998;10.440;2023-07-16T05:06:03;8.87;;;1.90;;
32106;SDS011;18622;51.998;10.440;2023-07-16T05:08:31;9.37;;;2.83;;
32106;SDS011;18622;51.998;10.440;2023-07-16T05:11:00;5.50;;;2.00;;
32106;SDS011;18622;51.998;10.440;2023-07-16T05:13:29;4.70;;;1.98;;
32106;SDS011;18622;51.998;10.440;2023-07-16T05:15:56;6.60;;;1.83;;
32106;SDS011;18622;51.998;10.440;2023-07-16T05:18:24;3.50;;;2.00;;
32106;SDS011;18622;51.998;10.440;2023-07-16T05:20:52;3.77;;;1.63;;
32106;SDS011;18622;51.998;10.440;2023-07-16T05:23:20;2.97;;;1.50;;
32106;SDS011;18622;51.998;10.440;2023-07-16T05:25:49;3.43;;;1.90;;
32106;SDS011;18622;51.998;10.440;2023-07-16T05:28:17;4.45;;;1.60;;
32106;SDS011;18622;51.998;10.440;2023-07-16T05:30:45;5.87;;;1.82;;
32106;SDS011;18622;51.998;10.440;2023-07-16T05:33:13;8.37;;;1.90;;
32106;SDS011;18622;51.998;10.440;2023-07-16T05:35:41;4.70;;;1.60;;
32106;SDS011;18622;51.998;10.440;2023-07-16T05:38:09;3.37;;;1.63;;
32106;SDS011;18622;51.998;10.440;2023-07-16T05:40:37;4.60;;;1.53;;
32106;SDS011;18622;51.998;10.440;2023-07-16T05:43:05;8.13;;;2.17;;
32106;SDS011;18622;51.998;10.440;2023-07-16T05:45:33;5.60;;;1.70;;
32106;SDS011;18622;51.998;10.440;2023-07-16T05:48:01;3.57;;;1.77;;
32106;SDS011;18622;51.998;10.440;2023-07-16T05:50:29;4.47;;;1.47;;
32106;SDS011;18622;51.998;10.440;2023-07-16T05:52:57;3.97;;;1.60;;
32106;SDS011;18622;51.998;10.440;2023-07-16T05:55:25;5.90;;;1.60;;
32106;SDS011;18622;51.998;10.440;2023-07-16T05:57:52;4.47;;;1.50;;
32106;SDS011;18622;51.998;10.440;2023-07-16T06:00:20;4.80;;;1.83;;
32106;SDS011;18622;51.998;10.440;2023-07-16T06:02:48;2.33;;;1.77;;
32106;SDS011;18622;51.998;10.440;2023-07-16T06:05:16;2.37;;;1.40;;
32106;SDS011;18622;51.998;10.440;2023-07-16T06:07:44;1.83;;;1.60;;
32106;SDS011;18622;51.998;10.440;2023-07-16T06:10:12;2.77;;;1.60;;
32106;SDS011;18622;51.998;10.440;2023-07-16T06:12:40;2.60;;;1.33;;
32106;SDS011;18622;51.998;10.440;2023-07-16T06:15:07;3.40;;;1.70;;
32106;SDS011;18622;51.998;10.440;2023-07-16T06:17:36;3.67;;;1.30;;
32106;SDS011;18622;51.998;10.440;2023-07-16T06:20:05;1.83;;;1.30;;
32106;SDS011;18622;51.998;10.440;2023-07-16T06:22:34;2.80;;;1.50;;
32106;SDS011;18622;51.998;10.440;2023-07-16T06:25:01;3.83;;;1.77;;
32106;SDS011;18622;51.998;10.440;2023-07-16T06:27:30;4.10;;;1.40;;
32106;SDS011;18622;51.998;10.440;2023-07-16T06:29:58;3.43;;;1.40;;
32106;SDS011;18622;51.998;10.440;2023-07-16T06:32:26;3.97;;;1.40;;
32106;SDS011;18622;51.998;10.440;2023-07-16T06:34:54;4.23;;;1.23;;
32106;SDS011;18622;51.998;10.440;2023-07-16T06:37:21;12.37;;;1.90;;
32106;SDS011;18622;51.998;10.440;2023-07-16T06:39:49;4.75;;;1.45;;
32106;SDS011;18622;51.998;10.440;2023-07-16T06:42:17;3.43;;;1.57;;
32106;SDS011;18622;51.998;10.440;2023-07-16T06:44:45;2.93;;;1.67;;
32106;SDS011;18622;51.998;10.440;2023-07-16T06:47:13;5.53;;;1.20;;
32106;SDS011;18622;51.998;10.440;2023-07-16T06:49:41;4.03;;;1.30;;
32106;SDS011;18622;51.998;10.440;2023-07-16T06:52:18;4.47;;;2.00;;
32106;SDS011;18622;51.998;10.440;2023-07-16T06:54:57;3.67;;;1.13;;
32106;SDS011;18622;51.998;10.440;2023-07-16T06:57:24;2.17;;;1.20;;
32106;SDS011;18622;51.998;10.440;2023-07-16T06:59:52;5.47;;;1.30;;
32106;SDS011;18622;51.998;10.440;2023-07-16T07:02:20;4.90;;;1.20;;
32106;SDS011;18622;51.998;10.440;2023-07-16T07:04:48;4.17;;;1.60;;
32106;SDS011;18622;51.998;10.440;2023-07-16T07:07:15;3.97;;;1.27;;
32106;SDS011;18622;51.998;10.440;2023-07-16T07:09:46;3.87;;;1.23;;
32106;SDS011;18622;51.998;10.440;2023-07-16T07:12:15;5.07;;;1.13;;
32106;SDS011;18622;51.998;10.440;2023-07-16T07:14:43;4.90;;;1.33;;
32106;SDS011;18622;51.998;10.440;2023-07-16T07:17:11;5.03;;;1.10;;
32106;SDS011;18622;51.998;10.440;2023-07-16T07:19:39;4.43;;;1.40;;
32106;SDS011;18622;51.998;10.440;2023-07-16T07:22:07;2.35;;;0.98;;
32106;SDS011;18622;51.998;10.440;2023-07-16T07:24:35;4.47;;;1.20;;
32106;SDS011;18622;51.998;10.440;2023-07-16T07:27:03;1.93;;;1.03;;
32106;SDS011;18622;51.998;10.440;2023-07-16T07:29:31;1.82;;;1.02;;
32106;SDS011;18622;51.998;10.440;2023-07-16T07:31:59;8.03;;;1.63;;
32106;SDS011;18622;51.998;10.440;2023-07-16T07:34:27;3.23;;;1.30;;
32106;SDS011;18622;51.998;10.440;2023-07-16T07:36:54;3.63;;;1.57;;
32106;SDS011;18622;51.998;10.440;2023-07-16T07:39:22;6.40;;;1.40;;
32106;SDS011;18622;51.998;10.440;2023-07-16T07:41:50;4.83;;;1.27;;
32106;SDS011;18622;51.998;10.440;2023-07-16T07:44:18;3.07;;;1.20;;
32106;SDS011;18622;51.998;10.440;2023-07-16T07:46:46;4.63;;;1.87;;
32106;SDS011;18622;51.998;10.440;2023-07-16T07:49:13;5.73;;;1.67;;
32106;SDS011;18622;51.998;10.440;2023-07-16T07:51:41;8.30;;;1.20;;
32106;SDS011;18622;51.998;10.440;2023-07-16T07:54:09;1.97;;;1.10;;
32106;SDS011;18622;51.998;10.440;2023-07-16T07:56:37;4.93;;;1.70;;
32106;SDS011;18622;51.998;10.440;2023-07-16T07:59:05;2.83;;;1.20;;
32106;SDS011;18622;51.998;10.440;2023-07-16T08:01:32;2.20;;;1.30;;
32106;SDS011;18622;51.998;10.440;2023-07-16T08:04:02;3.77;;;1.37;;
32106;SDS011;18622;51.998;10.440;2023-07-16T08:06:29;2.60;;;1.20;;
32106;SDS011;18622;51.998;10.440;2023-07-16T08:08:58;4.35;;;1.30;;
32106;SDS011;18622;51.998;10.440;2023-07-16T08:11:26;6.30;;;1.33;;
32106;SDS011;18622;51.998;10.440;2023-07-16T08:13:53;3.77;;;1.13;;
32106;SDS011;18622;51.998;10.440;2023-07-16T08:16:21;7.20;;;1.33;;
32106;SDS011;18622;51.998;10.440;2023-07-16T08:18:49;5.97;;;1.47;;
32106;SDS011;18622;51.998;10.440;2023-07-16T08:21:17;3.30;;;1.33;;
32106;SDS011;18622;51.998;10.440;2023-07-16T08:26:14;4.75;;;1.00;;
32106;SDS011;18622;51.998;10.440;2023-07-16T08:28:42;4.93;;;1.40;;
32106;SDS011;18622;51.998;10.440;2023-07-16T08:31:10;7.97;;;1.47;;
32106;SDS011;18622;51.998;10.440;2023-07-16T08:33:40;5.00;;;1.62;;
32106;SDS011;18622;51.998;10.440;2023-07-16T08:36:09;3.03;;;1.50;;
32106;SDS011;18622;51.998;10.440;2023-07-16T08:38:36;3.55;;;1.20;;
32106;SDS011;18622;51.998;10.440;2023-07-16T08:41:04;2.03;;;1.27;;
32106;SDS011;18622;51.998;10.440;2023-07-16T08:43:32;5.50;;;0.90;;
32106;SDS011;18622;51.998;10.440;2023-07-16T08:46:00;3.33;;;1.30;;
32106;SDS011;18622;51.998;10.440;2023-07-16T08:48:28;2.30;;;1.10;;
32106;SDS011;18622;51.998;10.440;2023-07-16T08:50:57;4.87;;;1.40;;
32106;SDS011;18622;51.998;10.440;2023-07-16T08:53:27;4.00;;;1.20;;
32106;SDS011;18622;51.998;10.440;2023-07-16T08:55:55;3.70;;;1.50;;
32106;SDS011;18622;51.998;10.440;2023-07-16T08:58:24;2.77;;;1.17;;
32106;SDS011;18622;51.998;10.440;2023-07-16T09:00:52;2.17;;;1.30;;
32106;SDS011;18622;51.998;10.440;2023-07-16T09:03:20;2.93;;;1.20;;
32106;SDS011;18622;51.998;10.440;2023-07-16T09:05:48;3.67;;;1.50;;
32106;SDS011;18622;51.998;10.440;2023-07-16T09:08:15;3.03;;;1.73;;
32106;SDS011;18622;51.998;10.440;2023-07-16T09:10:43;4.70;;;1.73;;
32106;SDS011;18622;51.998;10.440;2023-07-16T09:13:11;3.27;;;1.27;;
32106;SDS011;18622;51.998;10.440;2023-07-16T09:15:39;2.50;;;1.50;;
32106;SDS011;18622;51.998;10.440;2023-07-16T09:18:08;3.65;;;1.40;;
32106;SDS011;18622;51.998;10.440;2023-07-16T09:20:39;2.77;;;1.40;;
32106;SDS011;18622;51.998;10.440;2023-07-16T09:23:08;4.72;;;1.65;;
32106;SDS011;18622;51.998;10.440;2023-07-16T09:25:35;3.57;;;1.20;;
32106;SDS011;18622;51.998;10.440;2023-07-16T09:28:05;4.53;;;1.30;;
32106;SDS011;18622;51.998;10.440;2023-07-16T09:30:32;4.80;;;1.80;;
32106;SDS011;18622;51.998;10.440;2023-07-16T09:33:20;3.70;;;1.50;;
32106;SDS011;18622;51.998;10.440;2023-07-16T09:35:51;3.83;;;1.70;;
32106;SDS011;18622;51.998;10.440;2023-07-16T09:38:19;3.73;;;1.70;;
32106;SDS011;18622;51.998;10.440;2023-07-16T09:40:47;7.97;;;1.80;;
32106;SDS011;18622;51.998;10.440;2023-07-16T09:43:15;4.40;;;1.47;;
32106;SDS011;18622;51.998;10.440;2023-07-16T09:48:12;3.67;;;1.72;;
32106;SDS011;18622;51.998;10.440;2023-07-16T09:50:43;3.90;;;1.20;;
32106;SDS011;18622;51.998;10.440;2023-07-16T09:53:11;3.67;;;1.17;;
32106;SDS011;18622;51.998;10.440;2023-07-16T09:55:42;5.17;;;1.70;;
32106;SDS011;18622;51.998;10.440;2023-07-16T09:58:10;4.20;;;1.37;;
32106;SDS011;18622;51.998;10.440;2023-07-16T10:00:40;5.07;;;1.30;;
32106;SDS011;18622;51.998;10.440;2023-07-16T10:03:08;2.98;;;1.82;;
32106;SDS011;18622;51.998;10.440;2023-07-16T10:05:37;2.80;;;1.40;;
32106;SDS011;18622;51.998;10.440;2023-07-16T10:08:14;2.27;;;1.27;;
32106;SDS011;18622;51.998;10.440;2023-07-16T10:10:41;4.27;;;1.70;;
32106;SDS011;18622;51.998;10.440;2023-07-16T10:13:15;4.20;;;1.60;;
32106;SDS011;18622;51.998;10.440;2023-07-16T10:15:50;3.50;;;1.67;;
32106;SDS011;18622;51.998;10.440;2023-07-16T10:21:05;7.40;;;1.97;;
32106;SDS011;18622;51.998;10.440;2023-07-16T10:23:37;3.60;;;1.77;;
32106;SDS011;18622;51.998;10.440;2023-07-16T10:26:07;4.53;;;1.55;;
32106;SDS011;18622;51.998;10.440;2023-07-16T10:28:36;2.93;;;1.40;;
32106;SDS011;18622;51.998;10.440;2023-07-16T10:31:05;2.52;;;1.62;;
32106;SDS011;18622;51.998;10.440;2023-07-16T10:33:36;3.63;;;1.60;;
32106;SDS011;18622;51.998;10.440;2023-07-16T10:36:04;2.77;;;1.87;;
32106;SDS011;18622;51.998;10.440;2023-07-16T10:38:39;2.33;;;1.53;;
32106;SDS011;18622;51.998;10.440;2023-07-16T10:41:10;5.23;;;1.43;;
32106;SDS011;18622;51.998;10.440;2023-07-16T10:43:38;5.10;;;2.10;;
32106;SDS011;18622;51.998;10.440;2023-07-16T10:46:08;2.87;;;1.52;;
32106;SDS011;18622;51.998;10.440;2023-07-16T10:48:36;2.42;;;1.40;;
32106;SDS011;18622;51.998;10.440;2023-07-16T10:51:04;2.10;;;1.67;;
32106;SDS011;18622;51.998;10.440;2023-07-16T10:53:31;2.07;;;1.20;;
32106;SDS011;18622;51.998;10.440;2023-07-16T10:55:59;2.30;;;1.70;;
32106;SDS011;18622;51.998;10.440;2023-07-16T10:58:27;2.90;;;1.70;;
32106;SDS011;18622;51.998;10.440;2023-07-16T11:00:55;2.80;;;1.40;;
32106;SDS011;18622;51.998;10.440;2023-07-16T11:03:23;2.37;;;1.30;;
32106;SDS011;18622;51.998;10.440;2023-07-16T11:05:51;3.13;;;1.60;;
32106;SDS011;18622;51.998;10.440;2023-07-16T11:08:22;1.97;;;1.50;;
32106;SDS011;18622;51.998;10.440;2023-07-16T11:10:55;3.33;;;1.67;;
32106;SDS011;18622;51.998;10.440;2023-07-16T11:13:27;2.83;;;1.70;;
32106;SDS011;18622;51.998;10.440;2023-07-16T11:16:08;2.37;;;1.57;;
32106;SDS011;18622;51.998;10.440;2023-07-16T11:18:36;3.00;;;1.63;;
32106;SDS011;18622;51.998;10.440;2023-07-16T11:21:04;3.60;;;1.70;;
32106;SDS011;18622;51.998;10.440;2023-07-16T11:23:35;2.83;;;1.60;;
32106;SDS011;18622;51.998;10.440;2023-07-16T11:26:03;5.60;;;1.95;;
32106;SDS011;18622;51.998;10.440;2023-07-16T11:28:38;5.70;;;2.23;;
32106;SDS011;18622;51.998;10.440;2023-07-16T11:31:10;2.47;;;1.80;;
32106;SDS011;18622;51.998;10.440;2023-07-16T11:33:44;3.53;;;1.90;;
32106;SDS011;18622;51.998;10.440;2023-07-16T11:36:13;3.50;;;1.90;;
32106;SDS011;18622;51.998;10.440;2023-07-16T11:38:41;3.80;;;1.73;;
32106;SDS011;18622;51.998;10.440;2023-07-16T11:41:09;2.10;;;1.90;;
32106;SDS011;18622;51.998;10.440;2023-07-16T11:43:37;1.83;;;1.40;;
32106;SDS011;18622;51.998;10.440;2023-07-16T11:46:15;4.30;;;1.80;;
32106;SDS011;18622;51.998;10.440;2023-07-16T11:48:37;4.87;;;1.85;;
32106;SDS011;18622;51.998;10.440;2023-07-16T11:51:05;3.47;;;1.90;;
32106;SDS011;18622;51.998;10.440;2023-07-16T11:53:33;2.13;;;1.83;;
32106;SDS011;18622;51.998;10.440;2023-07-16T11:56:00;4.93;;;1.90;;
32106;SDS011;18622;51.998;10.440;2023-07-16T11:58:28;2.90;;;1.83;;
32106;SDS011;18622;51.998;10.440;2023-07-16T12:00:56;5.90;;;1.90;;
32106;SDS011;18622;51.998;10.440;2023-07-16T12:03:24;4.73;;;1.87;;
32106;SDS011;18622;51.998;10.440;2023-07-16T12:05:52;4.73;;;1.93;;
32106;SDS011;18622;51.998;10.440;2023-07-16T12:08:19;2.50;;;1.90;;
32106;SDS011;18622;51.998;10.440;2023-07-16T12:10:47;3.73;;;2.00;;
32106;SDS011;18622;51.998;10.440;2023-07-16T12:13:15;5.53;;;2.10;;
32106;SDS011;18622;51.998;10.440;2023-07-16T12:15:43;2.73;;;1.97;;
32106;SDS011;18622;51.998;10.440;2023-07-16T12:18:11;4.57;;;1.90;;
32106;SDS011;18622;51.998;10.440;2023-07-16T12:20:39;3.00;;;2.00;;
32106;SDS011;18622;51.998;10.440;2023-07-16T12:23:06;2.33;;;1.70;;
32106;SDS011;18622;51.998;10.440;2023-07-16T12:25:34;2.97;;;2.10;;
32106;SDS011;18622;51.998;10.440;2023-07-16T12:28:02;2.90;;;2.03;;
32106;SDS011;18622;51.998;10.440;2023-07-16T12:30:30;3.00;;;1.77;;
32106;SDS011;18622;51.998;10.440;2023-07-16T12:32:58;5.80;;;1.80;;
32106;SDS011;18622;51.998;10.440;2023-07-16T12:35:25;7.92;;;2.00;;
32106;SDS011;18622;51.998;10.440;2023-07-16T12:37:53;3.40;;;2.10;;
32106;SDS011;18622;51.998;10.440;2023-07-16T12:40:23;2.83;;;2.00;;
32106;SDS011;18622;51.998;10.440;2023-07-16T12:42:52;3.33;;;2.20;;
32106;SDS011;18622;51.998;10.440;2023-07-16T12:45:20;2.57;;;2.17;;
32106;SDS011;18622;51.998;10.440;2023-07-16T12:47:48;8.67;;;2.23;;
32106;SDS011;18622;51.998;10.440;2023-07-16T12:50:16;3.33;;;2.17;;
32106;SDS011;18622;51.998;10.440;2023-07-16T12:52:43;4.20;;;2.20;;
32106;SDS011;18622;51.998;10.440;2023-07-16T12:55:11;2.17;;;1.97;;
32106;SDS011;18622;51.998;10.440;2023-07-16T12:57:39;2.37;;;2.10;;
32106;SDS011;18622;51.998;10.440;2023-07-16T13:00:07;2.70;;;2.03;;
32106;SDS011;18622;51.998;10.440;2023-07-16T13:05:03;4.53;;;2.20;;
32106;SDS011;18622;51.998;10.440;2023-07-16T13:07:31;3.50;;;2.27;;
32106;SDS011;18622;51.998;10.440;2023-07-16T13:10:00;3.37;;;2.10;;
32106;SDS011;18622;51.998;10.440;2023-07-16T13:12:28;3.83;;;2.73;;
32106;SDS011;18622;51.998;10.440;2023-07-16T13:14:56;4.30;;;2.10;;
32106;SDS011;18622;51.998;10.440;2023-07-16T13:17:26;6.37;;;2.20;;
32106;SDS011;18622;51.998;10.440;2023-07-16T13:19:54;5.25;;;2.02;;
32106;SDS011;18622;51.998;10.440;2023-07-16T13:22:21;4.27;;;2.30;;
32106;SDS011;18622;51.998;10.440;2023-07-16T13:24:49;4.93;;;2.37;;
32106;SDS011;18622;51.998;10.440;2023-07-16T13:27:20;2.60;;;1.90;;
32106;SDS011;18622;51.998;10.440;2023-07-16T13:29:49;7.15;;;2.62;;
32106;SDS011;18622;51.998;10.440;2023-07-16T13:32:17;2.50;;;2.27;;
32106;SDS011;18622;51.998;10.440;2023-07-16T13:34:45;3.57;;;2.33;;
32106;SDS011;18622;51.998;10.440;2023-07-16T13:37:13;3.77;;;2.30;;
32106;SDS011;18622;51.998;10.440;2023-07-16T13:39:41;5.47;;;2.30;;
32106;SDS011;18622;51.998;10.440;2023-07-16T13:42:09;4.37;;;2.40;;
32106;SDS011;18622;51.998;10.440;2023-07-16T13:44:37;3.27;;;2.10;;
32106;SDS011;18622;51.998;10.440;2023-07-16T13:47:05;4.77;;;2.80;;
32106;SDS011;18622;51.998;10.440;2023-07-16T13:49:32;3.53;;;2.63;;
32106;SDS011;18622;51.998;10.440;2023-07-16T13:52:00;5.17;;;2.30;;
32106;SDS011;18622;51.998;10.440;2023-07-16T13:54:28;4.83;;;2.43;;
32106;SDS011;18622;51.998;10.440;2023-07-16T13:56:57;2.00;;;1.80;;
32106;SDS011;18622;51.998;10.440;2023-07-16T13:59:25;2.62;;;2.22;;
32106;SDS011;18622;51.998;10.440;2023-07-16T14:01:59;5.47;;;2.63;;
32106;SDS011;18622;51.998;10.440;2023-07-16T14:04:27;2.83;;;2.20;;
32106;SDS011;18622;51.998;10.440;2023-07-16T14:06:55;3.27;;;2.23;;
32106;SDS011;18622;51.998;10.440;2023-07-16T14:09:23;3.57;;;2.10;;
32106;SDS011;18622;51.998;10.440;2023-07-16T14:11:51;3.07;;;2.10;;
32106;SDS011;18622;51.998;10.440;2023-07-16T14:14:20;6.00;;;2.37;;
32106;SDS011;18622;51.998;10.440;2023-07-16T14:16:49;3.70;;;2.03;;
32106;SDS011;18622;51.998;10.440;2023-07-16T14:19:17;3.57;;;2.20;;
32106;SDS011;18622;51.998;10.440;2023-07-16T14:21:45;2.70;;;2.50;;
32106;SDS011;18622;51.998;10.440;2023-07-16T14:24:12;5.97;;;2.30;;
32106;SDS011;18622;51.998;10.440;2023-07-16T14:26:40;3.57;;;2.60;;
32106;SDS011;18622;51.998;10.440;2023-07-16T14:29:08;6.43;;;2.00;;
32106;SDS011;18622;51.998;10.440;2023-07-16T14:31:37;4.10;;;2.00;;
32106;SDS011;18622;51.998;10.440;2023-07-16T14:34:05;3.47;;;2.30;;
32106;SDS011;18622;51.998;10.440;2023-07-16T14:36:33;2.50;;;1.90;;
32106;SDS011;18622;51.998;10.440;2023-07-16T14:39:01;5.97;;;2.43;;
32106;SDS011;18622;51.998;10.440;2023-07-16T14:41:29;4.05;;;2.22;;
32106;SDS011;18622;51.998;10.440;2023-07-16T14:43:57;6.63;;;2.23;;
32106;SDS011;18622;51.998;10.440;2023-07-16T14:46:25;4.47;;;2.20;;
32106;SDS011;18622;51.998;10.440;2023-07-16T14:48:53;4.27;;;2.00;;
32106;SDS011;18622;51.998;10.440;2023-07-16T14:51:23;2.43;;;1.87;;
32106;SDS011;18622;51.998;10.440;2023-07-16T14:53:51;9.60;;;2.10;;
32106;SDS011;18622;51.998;10.440;2023-07-16T14:56:19;5.17;;;1.90;;
32106;SDS011;18622;51.998;10.440;2023-07-16T14:58:47;6.10;;;2.10;;
32106;SDS011;18622;51.998;10.440;2023-07-16T15:01:15;5.30;;;2.10;;
32106;SDS011;18622;51.998;10.440;2023-07-16T15:03:42;4.37;;;2.33;;
32106;SDS011;18622;51.998;10.440;2023-07-16T15:06:10;3.22;;;2.00;;
32106;SDS011;18622;51.998;10.440;2023-07-16T15:08:38;5.58;;;2.58;;
32106;SDS011;18622;51.998;10.440;2023-07-16T15:11:05;3.83;;;3.10;;
32106;SDS011;18622;51.998;10.440;2023-07-16T15:13:33;5.25;;;2.92;;
32106;SDS011;18622;51.998;10.440;2023-07-16T15:16:00;2.62;;;2.42;;
32106;SDS011;18622;51.998;10.440;2023-07-16T15:18:30;3.45;;;2.87;;
32106;SDS011;18622;51.998;10.440;2023-07-16T15:21:00;2.95;;;2.22;;
32106;SDS011;18622;51.998;10.440;2023-07-16T15:23:29;4.47;;;2.60;;
32106;SDS011;18622;51.998;10.440;2023-07-16T15:26:01;3.52;;;2.45;;
32106;SDS011;18622;51.998;10.440;2023-07-16T15:28:32;5.47;;;2.30;;
32106;SDS011;18622;51.998;10.440;2023-07-16T15:31:02;2.30;;;2.10;;
32106;SDS011;18622;51.998;10.440;2023-07-16T15:33:30;7.67;;;2.62;;
32106;SDS011;18622;51.998;10.440;2023-07-16T15:35:57;3.55;;;2.92;;
32106;SDS011;18622;51.998;10.440;2023-07-16T15:38:25;11.73;;;2.90;;
32106;SDS011;18622;51.998;10.440;2023-07-16T15:40:52;4.17;;;2.50;;
32106;SDS011;18622;51.998;10.440;2023-07-16T15:43:20;2.90;;;2.40;;
32106;SDS011;18622;51.998;10.440;2023-07-16T15:45:48;3.35;;;2.52;;
32106;SDS011;18622;51.998;10.440;2023-07-16T15:48:16;4.40;;;2.67;;
32106;SDS011;18622;51.998;10.440;2023-07-16T15:50:43;3.85;;;2.90;;
32106;SDS011;18622;51.998;10.440;2023-07-16T15:53:12;2.85;;;2.60;;
32106;SDS011;18622;51.998;10.440;2023-07-16T15:55:40;3.25;;;2.50;;
32106;SDS011;18622;51.998;10.440;2023-07-16T15:58:07;3.72;;;2.72;;
32106;SDS011;18622;51.998;10.440;2023-07-16T16:00:35;3.90;;;2.77;;
32106;SDS011;18622;51.998;10.440;2023-07-16T16:03:03;3.60;;;3.27;;
32106;SDS011;18622;51.998;10.440;2023-07-16T16:05:30;3.33;;;2.47;;
32106;SDS011;18622;51.998;10.440;2023-07-16T16:08:14;2.60;;;2.33;;
32106;SDS011;18622;51.998;10.440;2023-07-16T16:10:46;4.78;;;2.95;;
32106;SDS011;18622;51.998;10.440;2023-07-16T16:13:17;3.40;;;2.52;;
32106;SDS011;18622;51.998;10.440;2023-07-16T16:15:45;3.12;;;2.67;;
32106;SDS011;18622;51.998;10.440;2023-07-16T16:18:13;4.22;;;2.98;;
32106;SDS011;18622;51.998;10.440;2023-07-16T16:20:41;4.45;;;2.70;;
32106;SDS011;18622;51.998;10.440;2023-07-16T16:23:10;5.00;;;3.00;;
32106;SDS011;18622;51.998;10.440;2023-07-16T16:25:38;3.05;;;2.72;;
32106;SDS011;18622;51.998;10.440;2023-07-16T16:28:06;3.30;;;2.43;;
32106;SDS011;18622;51.998;10.440;2023-07-16T16:30:36;7.25;;;2.83;;
32106;SDS011;18622;51.998;10.440;2023-07-16T16:33:05;6.53;;;3.08;;
32106;SDS011;18622;51.998;10.440;2023-07-16T16:35:38;5.83;;;2.98;;
32106;SDS011;18622;51.998;10.440;2023-07-16T16:38:06;4.70;;;2.90;;
32106;SDS011;18622;51.998;10.440;2023-07-16T16:40:34;4.37;;;2.70;;
32106;SDS011;18622;51.998;10.440;2023-07-16T16:43:04;4.15;;;2.47;;
32106;SDS011;18622;51.998;10.440;2023-07-16T16:45:31;3.52;;;2.90;;
32106;SDS011;18622;51.998;10.440;2023-07-16T16:48:03;5.08;;;3.05;;
32106;SDS011;18622;51.998;10.440;2023-07-16T16:50:31;5.53;;;2.95;;
32106;SDS011;18622;51.998;10.440;2023-07-16T16:52:59;6.53;;;3.53;;
32106;SDS011;18622;51.998;10.440;2023-07-16T16:55:27;4.20;;;3.37;;
32106;SDS011;18622;51.998;10.440;2023-07-16T16:57:54;4.12;;;3.15;;
32106;SDS011;18622;51.998;10.440;2023-07-16T17:00:22;6.70;;;3.40;;
32106;SDS011;18622;51.998;10.440;2023-07-16T17:02:50;4.23;;;3.93;;
32106;SDS011;18622;51.998;10.440;2023-07-16T17:05:18;4.30;;;3.62;;
32106;SDS011;18622;51.998;10.440;2023-07-16T17:07:46;4.60;;;4.20;;
32106;SDS011;18622;51.998;10.440;2023-07-16T17:10:13;4.47;;;4.10;;
32106;SDS011;18622;51.998;10.440;2023-07-16T17:12:41;5.93;;;4.97;;
32106;SDS011;18622;51.998;10.440;2023-07-16T17:15:09;4.77;;;3.80;;
32106;SDS011;18622;51.998;10.440;2023-07-16T17:17:37;4.12;;;3.45;;
32106;SDS011;18622;51.998;10.440;2023-07-16T17:20:05;2.83;;;2.63;;
32106;SDS011;18622;51.998;10.440;2023-07-16T17:22:39;3.95;;;3.00;;
32106;SDS011;18622;51.998;10.440;2023-07-16T17:25:07;2.67;;;2.47;;
32106;SDS011;18622;51.998;10.440;2023-07-16T17:27:35;3.30;;;3.00;;
32106;SDS011;18622;51.998;10.440;2023-07-16T17:30:04;4.15;;;2.85;;
32106;SDS011;18622;51.998;10.440;2023-07-16T17:32:34;2.95;;;2.62;;
32106;SDS011;18622;51.998;10.440;2023-07-16T17:35:02;4.37;;;2.87;;
32106;SDS011;18622;51.998;10.440;2023-07-16T17:37:30;3.73;;;2.80;;
32106;SDS011;18622;51.998;10.440;2023-07-16T17:39:58;7.00;;;2.83;;
32106;SDS011;18622;51.998;10.440;2023-07-16T17:42:26;5.57;;;2.83;;
32106;SDS011;18622;51.998;10.440;2023-07-16T17:44:54;5.23;;;2.63;;
32106;SDS011;18622;51.998;10.440;2023-07-16T17:47:21;2.43;;;2.23;;
32106;SDS011;18622;51.998;10.440;2023-07-16T17:49:49;3.83;;;2.70;;
32106;SDS011;18622;51.998;10.440;2023-07-16T17:52:18;6.03;;;2.85;;
32106;SDS011;18622;51.998;10.440;2023-07-16T17:54:46;4.53;;;2.50;;
32106;SDS011;18622;51.998;10.440;2023-07-16T17:57:14;3.90;;;2.80;;
32106;SDS011;18622;51.998;10.440;2023-07-16T17:59:43;2.93;;;2.50;;
32106;SDS011;18622;51.998;10.440;2023-07-16T18:02:11;8.43;;;3.17;;
32106;SDS011;18622;51.998;10.440;2023-07-16T18:04:39;5.17;;;2.60;;
32106;SDS011;18622;51.998;10.440;2023-07-16T18:07:07;4.13;;;2.83;;
32106;SDS011;18622;51.998;10.440;2023-07-16T18:09:35;4.67;;;2.87;;
32106;SDS011;18622;51.998;10.440;2023-07-16T18:12:03;6.00;;;2.67;;
32106;SDS011;18622;51.998;10.440;2023-07-16T18:14:31;3.95;;;2.58;;
32106;SDS011;18622;51.998;10.440;2023-07-16T18:16:58;4.00;;;2.20;;
32106;SDS011;18622;51.998;10.440;2023-07-16T18:19:26;3.13;;;2.63;;
32106;SDS011;18622;51.998;10.440;2023-07-16T18:21:54;5.40;;;2.80;;
32106;SDS011;18622;51.998;10.440;2023-07-16T18:24:22;5.93;;;3.07;;